JST764 YSSY-YMML
Flight info
| Callsign | JST764 |
|---|---|
| Flight time | 1h 5m |
| Altitude | 38000 |
| Route | WOL H65 LEECE Q29 ML |
| Aircraft | A20N/M-SDE2E3FGHIRWXY/LB1 |
Departure
| Time | 2026-04-26 06:28 |
|---|---|
| Airport | Sydney Kingsford Smith International Airport (YSSY) |
Arrival
| Time | 2026-04-26 07:34 |
|---|---|
| Airport | Melbourne Airport (YMML) |
| Time | Latitude | Longitude | Altitude | Speed | Heading |
|---|---|---|---|---|---|
| 2026-04-26 05:53 | -33.93564 | 151.17764 | 30 ft | 0 kts | 280° |
| 2026-04-26 05:59 | -33.93157 | 151.17630 | 30 ft | 0 kts | 111° |
| 2026-04-26 06:13 | -33.93156 | 151.17629 | 30 ft | 1 kts | 111° |
| 2026-04-26 06:13 | -33.93151 | 151.17612 | 30 ft | 3 kts | 111° |
| 2026-04-26 06:14 | -33.93144 | 151.17589 | 30 ft | 3 kts | 111° |
| 2026-04-26 06:14 | -33.93136 | 151.17567 | 30 ft | 3 kts | 115° |
| 2026-04-26 06:14 | -33.93126 | 151.17545 | 30 ft | 3 kts | 129° |
| 2026-04-26 06:14 | -33.93115 | 151.17532 | 30 ft | 2 kts | 170° |
| 2026-04-26 06:15 | -33.93109 | 151.17530 | 30 ft | 1 kts | 184° |
| 2026-04-26 06:18 | -33.93126 | 151.17531 | 30 ft | 15 kts | 180° |
| 2026-04-26 06:18 | -33.93275 | 151.17563 | 30 ft | 22 kts | 169° |
| 2026-04-26 06:19 | -33.93406 | 151.17591 | 30 ft | 23 kts | 178° |
| 2026-04-26 06:19 | -33.93568 | 151.17604 | 28 ft | 22 kts | 174° |
| 2026-04-26 06:19 | -33.93714 | 151.17574 | 20 ft | 21 kts | 188° |
| 2026-04-26 06:19 | -33.93846 | 151.17606 | 18 ft | 19 kts | 155° |
| 2026-04-26 06:20 | -33.93857 | 151.17730 | 19 ft | 12 kts | 102° |
| 2026-04-26 06:20 | -33.93923 | 151.17784 | 21 ft | 0 kts | 165° |
| 2026-04-26 06:21 | -33.94019 | 151.17814 | 22 ft | 27 kts | 166° |
| 2026-04-26 06:21 | -33.94215 | 151.17860 | 28 ft | 30 kts | 169° |
| 2026-04-26 06:21 | -33.94425 | 151.17912 | 26 ft | 30 kts | 174° |
| 2026-04-26 06:22 | -33.94601 | 151.17905 | 26 ft | 25 kts | 168° |
| 2026-04-26 06:22 | -33.94772 | 151.17950 | 22 ft | 30 kts | 169° |
| 2026-04-26 06:22 | -33.94978 | 151.18005 | 26 ft | 29 kts | 168° |
| 2026-04-26 06:22 | -33.95045 | 151.18021 | 27 ft | 1 kts | 168° |
| 2026-04-26 06:23 | -33.95093 | 151.18069 | 25 ft | 9 kts | 107° |
| 2026-04-26 06:23 | -33.95079 | 151.18212 | 26 ft | 20 kts | 79° |
| 2026-04-26 06:23 | -33.95052 | 151.18376 | 26 ft | 19 kts | 79° |
| 2026-04-26 06:23 | -33.95046 | 151.18413 | 29 ft | 0 kts | 79° |
| 2026-04-26 06:24 | -33.95056 | 151.18486 | 28 ft | 19 kts | 111° |
| 2026-04-26 06:24 | -33.95168 | 151.18609 | 26 ft | 22 kts | 139° |
| 2026-04-26 06:24 | -33.95292 | 151.18707 | 26 ft | 19 kts | 152° |
| 2026-04-26 06:25 | -33.95418 | 151.18749 | 22 ft | 25 kts | 168° |
| 2026-04-26 06:25 | -33.95534 | 151.18776 | 21 ft | 27 kts | 167° |
| 2026-04-26 06:25 | -33.95804 | 151.18852 | 26 ft | 31 kts | 170° |
| 2026-04-26 06:25 | -33.96010 | 151.18903 | 25 ft | 29 kts | 167° |
| 2026-04-26 06:26 | -33.96205 | 151.18951 | 26 ft | 28 kts | 166° |
| 2026-04-26 06:26 | -33.96405 | 151.18999 | 21 ft | 32 kts | 167° |
| 2026-04-26 06:26 | -33.96630 | 151.19061 | 19 ft | 33 kts | 171° |
| 2026-04-26 06:26 | -33.96784 | 151.19073 | 18 ft | 33 kts | 180° |
| 2026-04-26 06:27 | -33.97086 | 151.19145 | 19 ft | 28 kts | 152° |
| 2026-04-26 06:27 | -33.97119 | 151.19240 | 20 ft | 20 kts | 90° |
| 2026-04-26 06:27 | -33.97044 | 151.19368 | 23 ft | 15 kts | 7° |
| 2026-04-26 06:27 | -33.96763 | 151.19303 | 19 ft | 82 kts | 349° |
| 2026-04-26 06:28 | -33.96008 | 151.19105 | 30 ft | 139 kts | 350° |
| 2026-04-26 06:28 | -33.94915 | 151.18823 | 358 ft | 176 kts | 353° |
| 2026-04-26 06:28 | -33.93765 | 151.18946 | 1276 ft | 160 kts | 30° |
| 2026-04-26 06:28 | -33.93058 | 151.19930 | 2147 ft | 165 kts | 68° |
| 2026-04-26 06:29 | -33.92998 | 151.21402 | 2731 ft | 191 kts | 95° |
| 2026-04-26 06:29 | -33.93258 | 151.23074 | 3215 ft | 216 kts | 98° |
| 2026-04-26 06:29 | -33.93485 | 151.24961 | 3759 ft | 239 kts | 94° |
| 2026-04-26 06:29 | -33.93599 | 151.27759 | 4628 ft | 265 kts | 89° |
| 2026-04-26 06:30 | -33.93594 | 151.29244 | 5217 ft | 269 kts | 88° |
| 2026-04-26 06:30 | -33.93550 | 151.31515 | 6234 ft | 273 kts | 88° |
| 2026-04-26 06:30 | -33.93491 | 151.33811 | 7201 ft | 277 kts | 88° |
| 2026-04-26 06:30 | -33.93433 | 151.36143 | 8152 ft | 280 kts | 89° |
| 2026-04-26 06:31 | -33.93764 | 151.38459 | 9106 ft | 284 kts | 113° |
| 2026-04-26 06:31 | -33.94907 | 151.40400 | 10050 ft | 289 kts | 139° |
| 2026-04-26 06:31 | -33.96664 | 151.41578 | 10904 ft | 293 kts | 165° |
| 2026-04-26 06:31 | -33.98695 | 151.41743 | 11761 ft | 297 kts | 189° |
| 2026-04-26 06:32 | -34.00623 | 151.40850 | 12586 ft | 302 kts | 214° |
| 2026-04-26 06:32 | -34.02169 | 151.39126 | 13427 ft | 306 kts | 229° |
| 2026-04-26 06:32 | -34.03532 | 151.37169 | 14243 ft | 311 kts | 230° |
| 2026-04-26 06:32 | -34.04990 | 151.35170 | 14978 ft | 316 kts | 227° |
| 2026-04-26 06:33 | -34.06508 | 151.33290 | 15687 ft | 320 kts | 224° |
| 2026-04-26 06:33 | -34.08132 | 151.31422 | 16426 ft | 324 kts | 225° |
| 2026-04-26 06:33 | -34.09791 | 151.29547 | 17126 ft | 329 kts | 221° |
| 2026-04-26 06:33 | -34.11498 | 151.27696 | 17857 ft | 333 kts | 221° |
| 2026-04-26 06:34 | -34.13248 | 151.25821 | 18546 ft | 338 kts | 221° |
| 2026-04-26 06:34 | -34.15008 | 151.23927 | 19199 ft | 341 kts | 221° |
| 2026-04-26 06:34 | -34.16776 | 151.22012 | 19864 ft | 343 kts | 221° |
| 2026-04-26 06:34 | -34.18554 | 151.20075 | 20488 ft | 346 kts | 221° |
| 2026-04-26 06:35 | -34.20354 | 151.18109 | 21058 ft | 353 kts | 221° |
| 2026-04-26 06:35 | -34.22867 | 151.15361 | 21298 ft | 376 kts | 221° |
| 2026-04-26 06:35 | -34.24172 | 151.13933 | 21410 ft | 387 kts | 221° |
| 2026-04-26 06:35 | -34.26208 | 151.11704 | 21586 ft | 403 kts | 222° |
| 2026-04-26 06:36 | -34.28303 | 151.09408 | 22092 ft | 408 kts | 222° |
| 2026-04-26 06:36 | -34.30409 | 151.07098 | 22731 ft | 411 kts | 222° |
| 2026-04-26 06:36 | -34.32505 | 151.04797 | 23313 ft | 414 kts | 222° |
| 2026-04-26 06:36 | -34.34648 | 151.02443 | 23881 ft | 418 kts | 222° |
| 2026-04-26 06:37 | -34.36806 | 151.00072 | 24394 ft | 420 kts | 222° |
| 2026-04-26 06:37 | -34.38969 | 150.97693 | 24900 ft | 422 kts | 222° |
| 2026-04-26 06:37 | -34.41152 | 150.95290 | 25401 ft | 425 kts | 222° |
| 2026-04-26 06:37 | -34.43345 | 150.92874 | 25869 ft | 427 kts | 222° |
| 2026-04-26 06:38 | -34.45544 | 150.90451 | 26368 ft | 429 kts | 222° |
| 2026-04-26 06:38 | -34.47761 | 150.88007 | 26825 ft | 432 kts | 222° |
| 2026-04-26 06:38 | -34.49991 | 150.85545 | 27288 ft | 434 kts | 222° |
| 2026-04-26 06:38 | -34.52201 | 150.83105 | 27721 ft | 437 kts | 222° |
| 2026-04-26 06:39 | -34.54443 | 150.80610 | 28139 ft | 439 kts | 224° |
| 2026-04-26 06:39 | -34.56516 | 150.77885 | 28567 ft | 441 kts | 231° |
| 2026-04-26 06:39 | -34.58359 | 150.74889 | 28960 ft | 444 kts | 234° |
| 2026-04-26 06:39 | -34.60180 | 150.71853 | 29347 ft | 446 kts | 233° |
| 2026-04-26 06:40 | -34.62015 | 150.68812 | 29719 ft | 448 kts | 233° |
| 2026-04-26 06:40 | -34.63865 | 150.65749 | 30116 ft | 450 kts | 233° |
| 2026-04-26 06:40 | -34.65717 | 150.62677 | 30465 ft | 452 kts | 233° |
| 2026-04-26 06:40 | -34.67576 | 150.59588 | 30799 ft | 454 kts | 233° |
| 2026-04-26 06:41 | -34.69418 | 150.56522 | 31117 ft | 456 kts | 233° |
| 2026-04-26 06:41 | -34.71289 | 150.53405 | 31478 ft | 457 kts | 233° |
| 2026-04-26 06:41 | -34.73160 | 150.50284 | 31898 ft | 456 kts | 233° |
| 2026-04-26 06:41 | -34.75021 | 150.47178 | 32379 ft | 454 kts | 233° |
| 2026-04-26 06:42 | -34.76872 | 150.44085 | 32841 ft | 452 kts | 233° |
| 2026-04-26 06:42 | -34.78720 | 150.40995 | 33259 ft | 451 kts | 233° |
| 2026-04-26 06:42 | -34.80561 | 150.37914 | 33687 ft | 449 kts | 233° |
| 2026-04-26 06:42 | -34.82393 | 150.34845 | 34067 ft | 449 kts | 233° |
| 2026-04-26 06:43 | -34.84228 | 150.31768 | 34400 ft | 448 kts | 234° |
| 2026-04-26 06:43 | -34.86055 | 150.28704 | 34727 ft | 447 kts | 234° |
| 2026-04-26 06:43 | -34.87858 | 150.25678 | 35040 ft | 447 kts | 234° |
| 2026-04-26 06:43 | -34.89680 | 150.22616 | 35331 ft | 446 kts | 234° |
| 2026-04-26 06:44 | -34.91498 | 150.19558 | 35615 ft | 446 kts | 234° |
| 2026-04-26 06:44 | -34.93318 | 150.16495 | 35888 ft | 445 kts | 234° |
| 2026-04-26 06:44 | -34.95137 | 150.13431 | 36143 ft | 445 kts | 234° |
| 2026-04-26 06:44 | -34.96948 | 150.10377 | 36405 ft | 445 kts | 234° |
| 2026-04-26 06:45 | -34.98762 | 150.07316 | 36670 ft | 445 kts | 235° |
| 2026-04-26 06:45 | -35.00571 | 150.04260 | 36911 ft | 445 kts | 235° |
| 2026-04-26 06:45 | -35.02357 | 150.01240 | 37148 ft | 445 kts | 235° |
| 2026-04-26 06:45 | -35.04165 | 149.98181 | 37376 ft | 444 kts | 235° |
| 2026-04-26 06:46 | -35.05972 | 149.95121 | 37608 ft | 444 kts | 235° |
| 2026-04-26 06:46 | -35.07776 | 149.92061 | 37841 ft | 444 kts | 235° |
| 2026-04-26 06:46 | -35.09578 | 149.89003 | 38044 ft | 444 kts | 235° |
| 2026-04-26 06:46 | -35.11380 | 149.85944 | 38207 ft | 444 kts | 235° |
| 2026-04-26 06:47 | -35.13180 | 149.82886 | 38221 ft | 442 kts | 235° |
| 2026-04-26 06:47 | -35.16734 | 149.76838 | 38221 ft | 441 kts | 235° |
| 2026-04-26 06:48 | -35.20310 | 149.70743 | 38227 ft | 441 kts | 235° |
| 2026-04-26 06:48 | -35.23881 | 149.64646 | 38227 ft | 441 kts | 235° |
| 2026-04-26 06:49 | -35.27448 | 149.58545 | 38226 ft | 441 kts | 235° |
| 2026-04-26 06:49 | -35.31012 | 149.52437 | 38232 ft | 441 kts | 236° |
| 2026-04-26 06:50 | -35.34552 | 149.46362 | 38236 ft | 441 kts | 236° |
| 2026-04-26 06:50 | -35.38113 | 149.40239 | 38240 ft | 441 kts | 236° |
| 2026-04-26 06:51 | -35.41670 | 149.34113 | 38242 ft | 441 kts | 236° |
| 2026-04-26 06:51 | -35.46998 | 149.24914 | 38239 ft | 441 kts | 236° |
| 2026-04-26 06:52 | -35.50525 | 149.18812 | 38238 ft | 441 kts | 236° |
| 2026-04-26 06:52 | -35.54068 | 149.12673 | 38238 ft | 441 kts | 236° |
| 2026-04-26 06:53 | -35.57610 | 149.06525 | 38235 ft | 441 kts | 236° |
| 2026-04-26 06:53 | -35.61146 | 149.00375 | 38237 ft | 440 kts | 236° |
| 2026-04-26 06:54 | -35.64677 | 148.94223 | 38237 ft | 440 kts | 236° |
| 2026-04-26 06:54 | -35.68203 | 148.88069 | 38239 ft | 440 kts | 236° |
| 2026-04-26 06:55 | -35.71701 | 148.81952 | 38244 ft | 440 kts | 236° |
| 2026-04-26 06:55 | -35.75219 | 148.75790 | 38246 ft | 440 kts | 236° |
| 2026-04-26 06:56 | -35.78737 | 148.69631 | 38249 ft | 440 kts | 236° |
| 2026-04-26 06:56 | -35.82256 | 148.63478 | 38246 ft | 440 kts | 236° |
| 2026-04-26 06:57 | -35.85764 | 148.57305 | 38248 ft | 439 kts | 237° |
| 2026-04-26 06:57 | -35.89221 | 148.51165 | 38248 ft | 439 kts | 237° |
| 2026-04-26 06:58 | -35.92700 | 148.44964 | 38246 ft | 439 kts | 237° |
| 2026-04-26 06:58 | -35.96182 | 148.38772 | 38247 ft | 439 kts | 237° |
| 2026-04-26 06:59 | -35.99655 | 148.32585 | 38244 ft | 439 kts | 237° |
| 2026-04-26 06:59 | -36.03135 | 148.26380 | 38242 ft | 439 kts | 237° |
| 2026-04-26 07:00 | -36.06588 | 148.20213 | 38242 ft | 440 kts | 237° |
| 2026-04-26 07:00 | -36.10066 | 148.13991 | 38243 ft | 440 kts | 237° |
| 2026-04-26 07:01 | -36.13544 | 148.07760 | 38245 ft | 440 kts | 237° |
| 2026-04-26 07:01 | -36.17030 | 148.01530 | 38248 ft | 441 kts | 237° |
| 2026-04-26 07:02 | -36.20517 | 147.95286 | 38240 ft | 440 kts | 237° |
| 2026-04-26 07:02 | -36.23965 | 147.89099 | 38236 ft | 439 kts | 237° |
| 2026-04-26 07:03 | -36.27427 | 147.82872 | 38235 ft | 439 kts | 237° |
| 2026-04-26 07:03 | -36.30880 | 147.76653 | 38240 ft | 438 kts | 237° |
| 2026-04-26 07:04 | -36.34323 | 147.70436 | 38230 ft | 437 kts | 238° |
| 2026-04-26 07:04 | -36.37730 | 147.64259 | 38237 ft | 436 kts | 238° |
| 2026-04-26 07:05 | -36.41152 | 147.58043 | 38243 ft | 436 kts | 238° |
| 2026-04-26 07:05 | -36.44566 | 147.51831 | 38241 ft | 435 kts | 238° |
| 2026-04-26 07:06 | -36.47974 | 147.45620 | 38237 ft | 435 kts | 238° |
| 2026-04-26 07:06 | -36.51352 | 147.39452 | 38235 ft | 434 kts | 239° |
| 2026-04-26 07:07 | -36.54691 | 147.33216 | 38232 ft | 433 kts | 239° |
| 2026-04-26 07:07 | -36.58049 | 147.27011 | 38230 ft | 432 kts | 238° |
| 2026-04-26 07:08 | -36.61420 | 147.20836 | 38228 ft | 431 kts | 238° |
| 2026-04-26 07:08 | -36.64792 | 147.14661 | 38224 ft | 431 kts | 238° |
| 2026-04-26 07:09 | -36.68130 | 147.08532 | 38224 ft | 430 kts | 238° |
| 2026-04-26 07:09 | -36.71485 | 147.02356 | 38224 ft | 430 kts | 238° |
| 2026-04-26 07:11 | -36.79909 | 146.86948 | 38228 ft | 430 kts | 237° |
| 2026-04-26 07:11 | -36.83229 | 146.80807 | 38226 ft | 430 kts | 237° |
| 2026-04-26 07:12 | -36.86562 | 146.74593 | 37963 ft | 432 kts | 237° |
| 2026-04-26 07:12 | -36.88232 | 146.71473 | 37420 ft | 433 kts | 237° |
| 2026-04-26 07:12 | -36.89910 | 146.68338 | 36764 ft | 433 kts | 237° |
| 2026-04-26 07:12 | -36.91579 | 146.65217 | 36125 ft | 432 kts | 237° |
| 2026-04-26 07:13 | -36.93247 | 146.62098 | 35498 ft | 431 kts | 238° |
| 2026-04-26 07:13 | -36.94908 | 146.58988 | 34873 ft | 430 kts | 238° |
| 2026-04-26 07:13 | -36.96538 | 146.55932 | 34312 ft | 432 kts | 238° |
| 2026-04-26 07:13 | -36.98211 | 146.52793 | 33642 ft | 436 kts | 238° |
| 2026-04-26 07:14 | -36.99900 | 146.49621 | 32980 ft | 440 kts | 238° |
| 2026-04-26 07:14 | -37.01604 | 146.46418 | 32338 ft | 444 kts | 238° |
| 2026-04-26 07:14 | -37.03321 | 146.43187 | 31705 ft | 447 kts | 238° |
| 2026-04-26 07:14 | -37.05044 | 146.39943 | 31096 ft | 449 kts | 238° |
| 2026-04-26 07:15 | -37.06772 | 146.36688 | 30493 ft | 450 kts | 238° |
| 2026-04-26 07:15 | -37.08502 | 146.33426 | 29826 ft | 447 kts | 238° |
| 2026-04-26 07:15 | -37.10194 | 146.30234 | 29155 ft | 444 kts | 239° |
| 2026-04-26 07:15 | -37.11890 | 146.27030 | 28486 ft | 440 kts | 239° |
| 2026-04-26 07:16 | -37.13571 | 146.23849 | 27834 ft | 436 kts | 239° |
| 2026-04-26 07:16 | -37.15237 | 146.20693 | 27197 ft | 432 kts | 239° |
| 2026-04-26 07:16 | -37.16886 | 146.17566 | 26577 ft | 429 kts | 239° |
| 2026-04-26 07:16 | -37.18527 | 146.14453 | 25967 ft | 425 kts | 239° |
| 2026-04-26 07:17 | -37.20147 | 146.11375 | 25378 ft | 422 kts | 239° |
| 2026-04-26 07:17 | -37.21764 | 146.08303 | 24780 ft | 420 kts | 239° |
| 2026-04-26 07:17 | -37.23362 | 146.05265 | 24216 ft | 417 kts | 239° |
| 2026-04-26 07:17 | -37.24952 | 146.02238 | 23623 ft | 414 kts | 240° |
| 2026-04-26 07:18 | -37.26530 | 145.99232 | 22950 ft | 411 kts | 240° |
| 2026-04-26 07:18 | -37.28077 | 145.96282 | 22300 ft | 408 kts | 240° |
| 2026-04-26 07:18 | -37.29632 | 145.93313 | 21657 ft | 406 kts | 240° |
| 2026-04-26 07:18 | -37.31176 | 145.90363 | 21025 ft | 403 kts | 240° |
| 2026-04-26 07:19 | -37.32710 | 145.87440 | 20412 ft | 400 kts | 240° |
| 2026-04-26 07:19 | -37.34241 | 145.84522 | 19821 ft | 398 kts | 240° |
| 2026-04-26 07:19 | -37.35764 | 145.81619 | 19223 ft | 396 kts | 240° |
| 2026-04-26 07:19 | -37.37279 | 145.78731 | 18643 ft | 395 kts | 240° |
| 2026-04-26 07:20 | -37.38784 | 145.75858 | 17993 ft | 393 kts | 240° |
| 2026-04-26 07:20 | -37.40261 | 145.73032 | 17344 ft | 391 kts | 240° |
| 2026-04-26 07:20 | -37.41746 | 145.70187 | 16704 ft | 388 kts | 240° |
| 2026-04-26 07:20 | -37.43222 | 145.67358 | 16069 ft | 385 kts | 240° |
| 2026-04-26 07:21 | -37.44685 | 145.64551 | 15454 ft | 382 kts | 240° |
| 2026-04-26 07:21 | -37.46164 | 145.61776 | 14844 ft | 380 kts | 238° |
| 2026-04-26 07:21 | -37.47715 | 145.59098 | 14261 ft | 378 kts | 237° |
| 2026-04-26 07:21 | -37.49288 | 145.56452 | 13537 ft | 377 kts | 236° |
| 2026-04-26 07:22 | -37.50859 | 145.53799 | 12703 ft | 378 kts | 236° |
| 2026-04-26 07:22 | -37.52423 | 145.51134 | 11888 ft | 379 kts | 236° |
| 2026-04-26 07:22 | -37.53983 | 145.48456 | 11100 ft | 379 kts | 236° |
| 2026-04-26 07:22 | -37.55533 | 145.45786 | 10336 ft | 378 kts | 236° |
| 2026-04-26 07:23 | -37.57080 | 145.43115 | 9516 ft | 376 kts | 236° |
| 2026-04-26 07:23 | -37.58601 | 145.40488 | 8724 ft | 374 kts | 236° |
| 2026-04-26 07:23 | -37.60099 | 145.37904 | 8568 ft | 356 kts | 236° |
| 2026-04-26 07:23 | -37.61522 | 145.35446 | 8421 ft | 338 kts | 236° |
| 2026-04-26 07:24 | -37.62870 | 145.33117 | 8227 ft | 318 kts | 236° |
| 2026-04-26 07:24 | -37.64132 | 145.30934 | 8067 ft | 296 kts | 236° |
| 2026-04-26 07:24 | -37.65305 | 145.28904 | 7859 ft | 279 kts | 237° |
| 2026-04-26 07:24 | -37.66432 | 145.26946 | 7394 ft | 273 kts | 237° |
| 2026-04-26 07:25 | -37.67538 | 145.25020 | 6906 ft | 269 kts | 237° |
| 2026-04-26 07:25 | -37.68630 | 145.23120 | 6409 ft | 265 kts | 237° |
| 2026-04-26 07:25 | -37.69692 | 145.21273 | 5925 ft | 262 kts | 237° |
| 2026-04-26 07:25 | -37.70755 | 145.19423 | 5421 ft | 259 kts | 237° |
| 2026-04-26 07:26 | -37.71784 | 145.17640 | 5186 ft | 242 kts | 237° |
| 2026-04-26 07:26 | -37.72744 | 145.15994 | 4993 ft | 224 kts | 237° |
| 2026-04-26 07:26 | -37.73638 | 145.14484 | 4804 ft | 206 kts | 237° |
| 2026-04-26 07:26 | -37.74472 | 145.13093 | 4585 ft | 192 kts | 237° |
| 2026-04-26 07:27 | -37.75277 | 145.11762 | 4448 ft | 205 kts | 236° |
| 2026-04-26 07:27 | -37.76196 | 145.10210 | 4512 ft | 227 kts | 236° |
| 2026-04-26 07:27 | -37.77116 | 145.08650 | 4737 ft | 219 kts | 237° |
| 2026-04-26 07:27 | -37.77976 | 145.07084 | 4920 ft | 217 kts | 239° |
| 2026-04-26 07:28 | -37.78825 | 145.05491 | 4993 ft | 221 kts | 239° |
| 2026-04-26 07:28 | -37.79708 | 145.03865 | 5003 ft | 228 kts | 238° |
| 2026-04-26 07:28 | -37.80631 | 145.02208 | 5004 ft | 234 kts | 237° |
| 2026-04-26 07:28 | -37.81439 | 145.00418 | 5005 ft | 236 kts | 256° |
| 2026-04-26 07:29 | -37.81814 | 144.98382 | 5005 ft | 240 kts | 259° |
| 2026-04-26 07:29 | -37.82169 | 144.96319 | 4910 ft | 240 kts | 259° |
| 2026-04-26 07:29 | -37.82516 | 144.94276 | 4677 ft | 232 kts | 260° |
| 2026-04-26 07:29 | -37.82827 | 144.92324 | 4541 ft | 220 kts | 265° |
| 2026-04-26 07:30 | -37.83044 | 144.90448 | 4180 ft | 220 kts | 266° |
| 2026-04-26 07:30 | -37.83158 | 144.88515 | 3850 ft | 219 kts | 275° |
| 2026-04-26 07:30 | -37.82634 | 144.86932 | 3745 ft | 188 kts | 342° |
| 2026-04-26 07:30 | -37.81398 | 144.86353 | 3224 ft | 193 kts | 355° |
| 2026-04-26 07:31 | -37.80109 | 144.86079 | 2863 ft | 182 kts | 351° |
| 2026-04-26 07:31 | -37.78896 | 144.85929 | 2595 ft | 180 kts | 353° |
| 2026-04-26 07:31 | -37.77666 | 144.85776 | 2280 ft | 178 kts | 350° |
| 2026-04-26 07:31 | -37.76391 | 144.85549 | 2124 ft | 177 kts | 350° |
| 2026-04-26 07:32 | -37.75248 | 144.85368 | 1989 ft | 156 kts | 352° |
| 2026-04-26 07:32 | -37.74223 | 144.85188 | 1756 ft | 147 kts | 348° |
| 2026-04-26 07:32 | -37.73221 | 144.84967 | 1441 ft | 146 kts | 349° |
| 2026-04-26 07:32 | -37.72118 | 144.84739 | 1264 ft | 172 kts | 349° |
| 2026-04-26 07:33 | -37.70916 | 144.84490 | 1141 ft | 171 kts | 351° |
| 2026-04-26 07:33 | -37.69774 | 144.84284 | 818 ft | 162 kts | 354° |
| 2026-04-26 07:33 | -37.68645 | 144.84096 | 419 ft | 158 kts | 354° |
| 2026-04-26 07:33 | -37.67764 | 144.83942 | 371 ft | 70 kts | 350° |
| 2026-04-26 07:34 | -37.67365 | 144.83870 | 381 ft | 51 kts | 353° |
| 2026-04-26 07:34 | -37.67098 | 144.83830 | 392 ft | 26 kts | 359° |
| 2026-04-26 07:34 | -37.66947 | 144.83863 | 395 ft | 18 kts | 17° |
| 2026-04-26 07:34 | -37.66872 | 144.83898 | 392 ft | 4 kts | 23° |
| 2026-04-26 07:35 | -37.66812 | 144.83930 | 395 ft | 16 kts | 30° |
| 2026-04-26 07:35 | -37.66726 | 144.84035 | 400 ft | 15 kts | 80° |
| 2026-04-26 07:35 | -37.66763 | 144.84184 | 401 ft | 14 kts | 120° |
| 2026-04-26 07:35 | -37.66770 | 144.84236 | 402 ft | 9 kts | 84° |
| 2026-04-26 07:36 | -37.66766 | 144.84278 | 402 ft | 6 kts | 83° |
| 2026-04-26 07:36 | -37.66760 | 144.84334 | 401 ft | 3 kts | 79° |